الصفحة الرئيسية
METAR-TAF:

METAR-TAF

مطار :

مطار مسقط الدولي

مسقط, سلطنة عمان

دائرة عرض: 23-35N, خط طول: 058-17E, ارتفاع: 8 متر

مراقبة الطقس الحالي

تاريخ ووقت الإصدار 33 دقيقة قبل الساعة 19:50UTC
ريح 13 عقدة من الجنوب الغربي
درجة الحرارة 39°درجة مئوية
الرطوبة 26%
ضغط 1001 hPa
الرؤية 10 كم أو أكثر
الغيوم لا تقل 1500 م ولا وجود لمزنة ركامية السحاب الأسود

METAR: OOMS 291950Z 22013KT CAVOK 39/16 Q1001 NOSIG

زمن: 00:23 (20:23 UTC)

توقعات

تاريخ ووقت الإصدار 3ساعات و 23 دقيقة قبل الساعة 17:00UTC
التوقعات صالحة من29 الساعة 18 UTC إلى 30 الساعة 24 UTC
ريح 16 عقدة من الجنوب/الجنوب الغربي
الرؤية: 8000 متر
أصبح
من 30 الساعة 06 UTC إلى 30 الساعة 08 UTC
ريح 12 عقدة من الشمال/الشمال الشرقي
أصبح
من 30 الساعة 15 UTC إلى 30 الساعة 17 UTC
ريح 2 عقدةمن اتجاهات متغيرة
أصبح
من 30 الساعة 18 UTC إلى 30 الساعة 20 UTC
ريح 18 عقدة من الجنوب/الجنوب الغربي

TAF: OOMS 291700Z 2918/3024 21016KT 8000 NSC BECMG 3006/3008 02012KT BECMG 3015/3017 VRB02KT BECMG 3018/3020 20018KT

أرصاد الطقس والتوقعات من أكثر من 4000 مطار (تقارير الطقس للمطار METAR والتنبؤ بالطقس بالمطارTAF).

المحطات المتاحة هي النقط الصفراء والحمراء على الخريطة.

حرك المؤشر فوق النقطة لمعرفة اسم المحطة.

ثم انقر لمعرفة أرصاد وتوقعات الطقس.

لتغيير الخارطة: اضغط على الأزرار الخضراء مع رمز الصليب الأسود للتكبير. على الزر الأخضر مع شرطة للتصغير، أو على الأسهم الخضراء للخرائط المجاورة.


METAR-TAF: